Time;durP1;ratioP1;P1;durP2;ratioP2;P2;SDS_P1;SDS_P2;PMS_P1;PMS_P2;Temp;Humidity;BMP_temperature;BMP_pressure;BME280_temperature;BME280_humidity;BME280_pressure;Samples;Min_cycle;Max_cycle;Signal;HPM_P1;HPM_P2
2023/11/15 00:02:03;;;;;;;1.90;0.67;;;10.70;93.90;;;;;;5016688;28;20242;-76
2023/11/15 00:04:30;;;;;;;1.92;0.73;;;10.70;93.90;;;;;;5016396;28;20512;-76
2023/11/15 00:06:57;;;;;;;3.13;0.87;;;10.70;93.50;;;;;;5016329;28;20302;-75
2023/11/15 00:09:24;;;;;;;1.88;0.70;;;10.70;93.20;;;;;;5016396;28;20844;-75
2023/11/15 00:11:51;;;;;;;2.47;0.80;;;10.70;92.90;;;;;;5016707;28;20529;-75
2023/11/15 00:14:18;;;;;;;2.83;0.80;;;10.80;91.90;;;;;;5016268;28;20737;-75
2023/11/15 00:16:45;;;;;;;3.50;0.63;;;10.70;91.30;;;;;;5015008;28;20443;-75
2023/11/15 00:19:14;;;;;;;2.00;0.73;;;10.70;91.30;;;;;;5033955;28;20434;-76
2023/11/15 00:21:41;;;;;;;2.03;0.73;;;10.70;90.80;;;;;;5026573;28;20485;-75
2023/11/15 00:24:09;;;;;;;1.80;0.70;;;10.70;90.10;;;;;;5015918;28;20996;-75
2023/11/15 00:26:37;;;;;;;1.75;0.68;;;10.70;89.80;;;;;;5016527;28;20475;-75
2023/11/15 00:29:04;;;;;;;2.17;0.70;;;10.80;90.10;;;;;;5016262;28;20195;-75
2023/11/15 00:31:32;;;;;;;1.88;1.05;;;10.80;88.90;;;;;;5015922;28;20196;-75
2023/11/15 00:33:59;;;;;;;2.10;1.00;;;10.90;89.30;;;;;;5015964;28;20192;-75
2023/11/15 00:36:27;;;;;;;2.60;1.00;;;10.90;88.80;;;;;;5015849;28;20481;-75
2023/11/15 00:38:54;;;;;;;1.70;0.60;;;11.00;89.20;;;;;;5016040;28;20525;-75
2023/11/15 00:41:21;;;;;;;1.73;0.70;;;11.10;88.60;;;;;;5016030;28;20772;-76
2023/11/15 00:43:48;;;;;;;2.20;0.70;;;11.10;88.70;;;;;;5015544;28;20443;-75
2023/11/15 00:46:16;;;;;;;1.87;0.80;;;11.10;88.20;;;;;;5015620;28;20489;-76
2023/11/15 00:48:43;;;;;;;2.30;0.90;;;11.20;87.60;;;;;;5014505;28;20482;-75
2023/11/15 00:51:10;;;;;;;4.83;0.87;;;11.20;86.20;;;;;;5015957;28;20929;-75
2023/11/15 00:53:39;;;;;;;2.93;0.70;;;11.20;86.60;;;;;;5016413;28;20500;-76
2023/11/15 00:56:07;;;;;;;4.97;2.70;;;11.30;85.70;;;;;;5016047;28;20533;-75
2023/11/15 00:58:38;;;;;;;2.50;0.90;;;11.30;84.50;;;;;;5016073;28;20533;-75
2023/11/15 01:01:08;;;;;;;2.10;0.80;;;11.30;84.60;;;;;;5015901;28;20426;-75
2023/11/15 01:03:37;;;;;;;2.27;0.87;;;11.30;84.50;;;;;;5016104;28;20444;-75
2023/11/15 01:06:04;;;;;;;2.77;0.73;;;11.30;84.70;;;;;;5016090;28;20444;-75
2023/11/15 01:08:31;;;;;;;2.17;1.27;;;11.30;85.00;;;;;;5015688;28;20969;-75
2023/11/15 01:11:00;;;;;;;2.10;0.88;;;11.30;83.80;;;;;;5015730;28;20447;-75
2023/11/15 01:13:27;;;;;;;5.33;1.30;;;11.30;83.30;;;;;;5015948;28;20192;-75
2023/11/15 01:15:54;;;;;;;1.80;0.60;;;11.40;83.30;;;;;;5015600;28;20443;-75
2023/11/15 01:18:22;;;;;;;2.00;0.73;;;11.30;83.10;;;;;;5015873;28;20439;-75
2023/11/15 01:20:49;;;;;;;2.87;0.80;;;11.40;82.90;;;;;;5015817;28;20432;-75
2023/11/15 01:23:17;;;;;;;2.20;0.80;;;11.40;82.40;;;;;;5015497;28;20942;-76
2023/11/15 01:25:44;;;;;;;2.37;0.90;;;11.40;81.40;;;;;;5015271;28;20882;-76
2023/11/15 01:28:12;;;;;;;2.97;0.80;;;11.40;81.10;;;;;;5015690;28;20521;-75
2023/11/15 01:30:39;;;;;;;2.63;0.97;;;11.50;80.30;;;;;;5015873;28;20435;-75
2023/11/15 01:33:07;;;;;;;2.90;0.93;;;11.50;80.00;;;;;;5015635;28;20443;-75
2023/11/15 01:35:34;;;;;;;2.27;0.83;;;11.50;80.30;;;;;;5015232;28;20442;-75
2023/11/15 01:38:01;;;;;;;3.80;0.87;;;11.50;80.80;;;;;;5015539;28;20798;-75
2023/11/15 01:40:33;;;;;;;2.78;0.70;;;11.50;79.70;;;;;;5015471;28;20439;-75
2023/11/15 01:43:01;;;;;;;2.37;0.80;;;11.40;79.80;;;;;;5015388;28;20180;-75
2023/11/15 01:45:29;;;;;;;2.00;0.70;;;11.40;79.50;;;;;;5015412;28;20435;-75
2023/11/15 01:47:57;;;;;;;3.10;0.83;;;11.30;79.10;;;;;;5015377;28;20475;-75
2023/11/15 01:50:24;;;;;;;3.07;0.87;;;11.30;79.00;;;;;;5015306;28;20505;-75
2023/11/15 01:52:52;;;;;;;2.57;0.90;;;11.30;78.90;;;;;;5015236;28;20493;-75
2023/11/15 01:55:21;;;;;;;2.13;1.00;;;11.30;78.70;;;;;;5015355;28;20490;-75
2023/11/15 01:57:48;;;;;;;2.57;1.00;;;11.20;78.80;;;;;;5014896;28;20474;-75
2023/11/15 02:00:16;;;;;;;3.00;0.80;;;11.20;79.30;;;;;;5014678;28;20914;-75
2023/11/15 02:02:45;;;;;;;2.10;1.00;;;11.20;79.90;;;;;;5015293;28;20816;-75
2023/11/15 02:05:13;;;;;;;2.50;0.97;;;11.10;79.70;;;;;;5014654;28;20439;-75
2023/11/15 02:07:41;;;;;;;2.23;0.73;;;11.10;80.10;;;;;;5014899;28;20467;-75
2023/11/15 02:10:11;;;;;;;3.35;0.95;;;11.00;80.30;;;;;;5015031;28;20518;-75
2023/11/15 02:12:38;;;;;;;4.90;0.80;;;11.00;81.00;;;;;;5014545;28;20195;-75
2023/11/15 02:15:07;;;;;;;2.65;1.05;;;10.90;80.80;;;;;;5014875;28;20436;-75
2023/11/15 02:17:34;;;;;;;3.25;0.90;;;10.90;81.20;;;;;;5014817;28;20258;-75
2023/11/15 02:20:06;;;;;;;2.53;1.30;;;10.90;81.70;;;;;;5014438;28;20674;-75
2023/11/15 02:22:34;;;;;;;3.78;1.10;;;10.80;81.80;;;;;;5014883;28;20191;-75
2023/11/15 02:25:03;;;;;;;2.30;0.80;;;10.70;82.10;;;;;;5014393;28;20651;-74
2023/11/15 02:27:30;;;;;;;3.93;0.80;;;10.80;82.20;;;;;;5014647;28;20894;-74
2023/11/15 02:29:57;;;;;;;3.20;1.07;;;10.80;82.20;;;;;;5014786;28;20494;-75
2023/11/15 02:32:24;;;;;;;2.65;0.90;;;10.70;82.80;;;;;;5014552;28;20494;-75
2023/11/15 02:34:51;;;;;;;5.55;1.73;;;10.80;83.00;;;;;;5014477;28;20195;-75
2023/11/15 02:37:18;;;;;;;2.45;1.15;;;10.80;83.20;;;;;;5014389;28;20644;-75
2023/11/15 02:39:45;;;;;;;1.92;0.80;;;10.80;83.00;;;;;;5014095;28;20192;-75
2023/11/15 02:42:14;;;;;;;2.78;1.10;;;10.80;82.80;;;;;;5014360;28;20282;-75
2023/11/15 02:44:41;;;;;;;2.50;1.10;;;10.90;82.90;;;;;;5014330;28;20250;-75
2023/11/15 02:47:08;;;;;;;3.40;1.10;;;10.90;83.00;;;;;;5014193;28;20196;-75
2023/11/15 02:49:36;;;;;;;2.30;1.50;;;11.00;83.20;;;;;;5014179;28;20503;-75
2023/11/15 02:52:04;;;;;;;2.00;0.80;;;11.00;83.30;;;;;;5014194;28;20447;-75
2023/11/15 02:54:31;;;;;;;5.60;0.90;;;11.10;83.00;;;;;;5014138;28;20771;-75
2023/11/15 02:56:58;;;;;;;3.25;0.90;;;11.10;82.90;;;;;;5013689;28;20287;-75
2023/11/15 02:59:27;;;;;;;2.40;0.93;;;11.10;82.50;;;;;;5014209;28;20192;-75
2023/11/15 03:01:54;;;;;;;4.40;0.80;;;11.10;82.50;;;;;;5013798;28;20481;-75
2023/11/15 03:04:20;;;;;;;3.63;0.77;;;11.20;82.60;;;;;;5013826;28;20189;-75
2023/11/15 03:06:48;;;;;;;5.33;0.80;;;11.20;82.60;;;;;;5013716;28;20482;-75
2023/11/15 03:09:14;;;;;;;3.27;0.90;;;11.10;82.50;;;;;;5013521;28;21020;-75
2023/11/15 03:11:41;;;;;;;3.10;0.70;;;11.20;83.40;;;;;;5013405;28;20448;-75
2023/11/15 03:14:08;;;;;;;2.20;0.80;;;11.20;82.00;;;;;;5013912;28;20748;-75
2023/11/15 03:16:36;;;;;;;2.83;0.80;;;11.20;81.90;;;;;;5013824;28;20442;-75
2023/11/15 03:19:04;;;;;;;2.20;0.83;;;11.10;82.30;;;;;;5013874;28;20435;-75
2023/11/15 03:21:31;;;;;;;3.77;0.70;;;11.20;82.00;;;;;;5013553;28;20441;-75
2023/11/15 03:23:58;;;;;;;2.30;0.67;;;11.20;81.50;;;;;;5013857;28;20793;-75
2023/11/15 03:26:25;;;;;;;4.33;0.87;;;11.20;80.70;;;;;;5013808;28;20494;-75
2023/11/15 03:28:52;;;;;;;2.60;1.00;;;11.20;80.90;;;;;;5013667;28;20508;-75
2023/11/15 03:31:20;;;;;;;3.27;0.90;;;11.20;81.30;;;;;;5013391;28;20439;-75
2023/11/15 03:33:50;;;;;;;3.00;1.00;;;11.20;81.00;;;;;;5013645;28;20436;-75
2023/11/15 03:36:18;;;;;;;3.60;1.27;;;11.20;80.90;;;;;;5013720;28;20427;-75
2023/11/15 03:38:45;;;;;;;1.75;0.65;;;11.20;80.50;;;;;;5013338;28;20439;-75
2023/11/15 03:41:12;;;;;;;2.33;0.83;;;11.20;80.70;;;;;;5013790;28;20196;-75
2023/11/15 03:43:40;;;;;;;3.33;0.80;;;11.20;81.30;;;;;;5013699;28;20505;-75
2023/11/15 03:46:08;;;;;;;1.93;0.67;;;11.20;80.80;;;;;;5013572;28;20430;-75
2023/11/15 03:48:35;;;;;;;2.90;0.80;;;11.20;80.20;;;;;;5013682;28;20489;-75
2023/11/15 03:51:04;;;;;;;2.20;0.80;;;11.10;80.50;;;;;;5013521;28;20435;-74
2023/11/15 03:53:32;;;;;;;2.13;0.70;;;11.10;80.70;;;;;;5013244;28;20223;-75
2023/11/15 03:55:59;;;;;;;2.97;1.20;;;11.00;81.10;;;;;;5013494;28;20439;-75
2023/11/15 03:58:26;;;;;;;2.88;0.90;;;11.00;81.80;;;;;;5012919;28;20463;-75
2023/11/15 04:00:56;;;;;;;4.33;1.00;;;11.00;82.50;;;;;;5013536;28;20239;-75
2023/11/15 04:03:23;;;;;;;1.80;0.70;;;11.00;82.60;;;;;;5013685;28;20429;-75
2023/11/15 04:05:50;;;;;;;2.67;0.90;;;10.90;82.50;;;;;;5013023;28;20223;-75
2023/11/15 04:08:19;;;;;;;4.23;0.90;;;10.80;82.70;;;;;;5013015;28;20506;-75
2023/11/15 04:10:46;;;;;;;2.30;0.95;;;10.80;82.80;;;;;;5013333;28;20435;-75
2023/11/15 04:13:14;;;;;;;3.95;1.02;;;10.70;83.10;;;;;;5013051;28;20196;-75
2023/11/15 04:15:41;;;;;;;3.97;1.02;;;10.60;83.80;;;;;;5013019;28;20243;-74
2023/11/15 04:18:08;;;;;;;1.90;0.80;;;10.50;84.30;;;;;;5013277;28;20219;-74
2023/11/15 04:20:35;;;;;;;3.00;1.83;;;10.50;85.00;;;;;;5012965;28;20432;-74
2023/11/15 04:23:02;;;;;;;1.93;0.87;;;10.60;85.10;;;;;;5014068;28;20522;-74
2023/11/15 04:25:31;;;;;;;2.53;0.90;;;10.60;85.40;;;;;;5016586;28;20435;-74
2023/11/15 04:27:58;;;;;;;2.20;0.70;;;10.60;85.90;;;;;;5016873;28;20510;-74
2023/11/15 04:30:26;;;;;;;1.70;0.60;;;10.70;86.00;;;;;;5016974;28;20508;-75
2023/11/15 04:32:53;;;;;;;2.23;0.93;;;10.70;86.20;;;;;;5016486;28;20203;-74
2023/11/15 04:35:20;;;;;;;8.23;1.80;;;10.70;86.30;;;;;;5016335;28;20431;-74
2023/11/15 04:37:47;;;;;;;2.10;0.87;;;10.70;86.80;;;;;;5016774;28;20784;-74
2023/11/15 04:40:14;;;;;;;3.08;0.98;;;10.70;86.90;;;;;;5016728;28;20485;-75
2023/11/15 04:42:42;;;;;;;4.90;1.05;;;10.70;86.70;;;;;;5016621;28;20266;-75
2023/11/15 04:45:10;;;;;;;2.33;1.10;;;10.70;87.10;;;;;;5016550;28;20193;-75
2023/11/15 04:47:37;;;;;;;3.30;1.03;;;10.70;86.80;;;;;;5016207;28;20192;-75
2023/11/15 04:50:05;;;;;;;2.65;1.00;;;10.70;86.60;;;;;;5016402;28;20430;-74
2023/11/15 04:52:32;;;;;;;3.00;0.90;;;10.70;86.30;;;;;;5016405;28;20215;-75
2023/11/15 04:54:59;;;;;;;2.10;0.90;;;10.80;86.30;;;;;;5016493;28;20599;-74
2023/11/15 04:57:26;;;;;;;3.20;0.90;;;10.70;86.20;;;;;;5015991;28;20466;-74
2023/11/15 04:59:56;;;;;;;2.13;0.85;;;10.80;85.70;;;;;;5016282;28;20483;-75
2023/11/15 05:02:23;;;;;;;4.55;0.90;;;10.80;86.40;;;;;;5015990;28;20667;-74
2023/11/15 05:04:50;;;;;;;2.00;0.70;;;10.80;85.40;;;;;;5016109;28;20228;-75
2023/11/15 05:07:20;;;;;;;2.60;1.10;;;10.80;85.10;;;;;;5016208;28;20281;-75
2023/11/15 05:09:47;;;;;;;2.00;0.80;;;10.80;84.70;;;;;;5016023;28;20900;-74
2023/11/15 05:12:15;;;;;;;2.73;1.10;;;10.80;84.50;;;;;;5016126;28;20267;-74
2023/11/15 05:14:42;;;;;;;3.10;1.10;;;10.80;83.40;;;;;;5015726;28;20522;-74
2023/11/15 05:17:12;;;;;;;2.33;1.00;;;10.80;83.80;;;;;;5015675;28;20443;-74
2023/11/15 05:19:39;;;;;;;2.10;0.80;;;10.80;83.90;;;;;;5015866;28;20517;-75
2023/11/15 05:22:06;;;;;;;2.23;1.00;;;10.80;83.70;;;;;;5015648;28;20435;-74
2023/11/15 05:24:35;;;;;;;3.17;0.80;;;10.80;83.30;;;;;;5015662;28;20436;-75
2023/11/15 05:27:03;;;;;;;1.77;0.80;;;10.80;83.10;;;;;;5015963;28;20474;-75
2023/11/15 05:29:30;;;;;;;2.90;0.93;;;10.80;82.90;;;;;;5015434;28;20553;-74
2023/11/15 05:31:58;;;;;;;3.33;0.83;;;10.80;83.10;;;;;;5015696;28;20854;-75
2023/11/15 05:34:27;;;;;;;6.80;0.90;;;10.80;82.40;;;;;;5015182;28;20450;-75
2023/11/15 05:36:54;;;;;;;2.93;0.67;;;10.90;81.50;;;;;;5015135;28;20431;-75
2023/11/15 05:39:22;;;;;;;4.27;1.00;;;10.90;81.00;;;;;;5015619;28;20853;-74
2023/11/15 05:41:49;;;;;;;4.73;1.30;;;10.90;81.30;;;;;;5015482;28;20850;-74
2023/11/15 05:44:16;;;;;;;3.40;1.17;;;10.90;81.30;;;;;;5015609;28;20439;-74
2023/11/15 05:46:46;;;;;;;2.83;0.80;;;10.90;81.20;;;;;;5015449;28;20435;-75
2023/11/15 05:49:14;;;;;;;2.00;0.80;;;10.90;81.00;;;;;;5014844;28;20984;-74
2023/11/15 05:51:43;;;;;;;3.38;0.80;;;10.90;80.90;;;;;;5014957;28;20446;-75
2023/11/15 05:54:10;;;;;;;2.00;0.85;;;10.80;81.00;;;;;;5015261;28;20292;-75
2023/11/15 05:56:37;;;;;;;2.00;0.80;;;10.80;80.50;;;;;;5014964;28;20251;-75
2023/11/15 05:59:07;;;;;;;2.78;1.23;;;10.70;80.50;;;;;;5014848;28;20259;-75
2023/11/15 06:01:38;;;;;;;2.67;0.95;;;10.60;80.40;;;;;;5015130;28;20196;-75
2023/11/15 06:04:05;;;;;;;6.23;1.30;;;10.60;80.30;;;;;;5015239;28;20227;-75
2023/11/15 06:06:32;;;;;;;1.90;0.80;;;10.50;80.30;;;;;;5015066;28;20467;-75
2023/11/15 06:09:01;;;;;;;4.85;1.70;;;10.40;80.80;;;;;;5014663;28;20212;-75
2023/11/15 06:11:28;;;;;;;3.43;1.17;;;10.40;81.20;;;;;;5014933;28;20243;-75
2023/11/15 06:13:55;;;;;;;2.53;0.90;;;10.30;82.20;;;;;;5014597;28;20467;-75
2023/11/15 06:16:22;;;;;;;2.58;1.05;;;10.30;81.50;;;;;;5014572;28;20220;-75
2023/11/15 06:18:51;;;;;;;3.53;1.20;;;10.20;81.90;;;;;;5014533;28;20202;-74
2023/11/15 06:21:20;;;;;;;1.92;0.70;;;10.20;81.80;;;;;;5014485;28;20200;-75
2023/11/15 06:23:47;;;;;;;2.58;1.10;;;10.20;82.10;;;;;;5014526;28;20246;-74
2023/11/15 06:26:16;;;;;;;2.63;1.10;;;10.20;81.30;;;;;;5014774;28;20200;-74
2023/11/15 06:28:43;;;;;;;3.35;1.13;;;10.20;81.40;;;;;;5014272;28;20242;-75
2023/11/15 06:31:10;;;;;;;2.72;0.80;;;10.20;81.60;;;;;;5022019;28;20193;-74
2023/11/15 06:33:38;;;;;;;3.45;1.70;;;10.30;80.70;;;;;;5023404;28;20195;-74
2023/11/15 06:36:06;;;;;;;4.05;0.88;;;10.40;80.50;;;;;;5022798;28;20203;-74
2023/11/15 06:38:34;;;;;;;5.93;1.20;;;10.40;80.70;;;;;;5023727;28;20287;-74
2023/11/15 06:41:08;;;;;;;3.35;1.90;;;10.50;80.50;;;;;;5024826;28;20622;-75
2023/11/15 06:43:37;;;;;;;5.22;2.10;;;10.60;78.70;;;;;;5022477;28;20200;-75
2023/11/15 06:46:04;;;;;;;2.83;0.82;;;10.60;78.70;;;;;;5024168;28;20257;-75
2023/11/15 06:48:31;;;;;;;2.55;0.93;;;10.60;78.90;;;;;;5024215;28;20192;-75
2023/11/15 06:50:58;;;;;;;3.40;0.90;;;10.60;78.80;;;;;;5013832;28;20198;-74
2023/11/15 06:53:26;;;;;;;2.10;0.87;;;10.60;78.80;;;;;;5013926;28;20192;-75
2023/11/15 06:55:54;;;;;;;3.43;1.17;;;10.70;78.30;;;;;;5024006;28;20458;-75
2023/11/15 06:58:21;;;;;;;3.90;0.70;;;10.70;77.60;;;;;;5033133;28;20474;-75
2023/11/15 07:00:49;;;;;;;2.35;0.90;;;10.70;77.70;;;;;;5032831;28;20435;-75
2023/11/15 07:03:20;;;;;;;4.70;1.60;;;10.70;77.90;;;;;;5032801;28;20199;-75
2023/11/15 07:05:48;;;;;;;4.40;1.52;;;10.80;77.40;;;;;;5032940;28;20275;-75
2023/11/15 07:08:16;;;;;;;2.55;1.38;;;10.90;76.10;;;;;;5033547;28;20296;-75
2023/11/15 07:10:43;;;;;;;4.45;1.48;;;10.90;75.70;;;;;;5033454;28;20211;-75
2023/11/15 07:13:12;;;;;;;3.88;0.90;;;10.90;76.20;;;;;;5033167;28;20282;-75
2023/11/15 07:15:40;;;;;;;2.30;0.90;;;10.90;76.00;;;;;;5033482;28;20188;-75
2023/11/15 07:18:09;;;;;;;2.05;0.90;;;11.00;76.00;;;;;;5033159;28;20278;-75
2023/11/15 07:20:38;;;;;;;5.10;1.27;;;11.00;75.30;;;;;;5032962;28;20793;-75
2023/11/15 07:23:06;;;;;;;4.20;0.85;;;11.00;74.40;;;;;;5033349;28;20515;-75
2023/11/15 07:25:33;;;;;;;5.07;1.17;;;11.10;74.30;;;;;;5033208;28;20241;-75
2023/11/15 07:28:04;;;;;;;3.43;1.00;;;11.20;74.30;;;;;;5033197;28;20450;-75
2023/11/15 07:30:32;;;;;;;2.63;1.00;;;11.30;75.20;;;;;;5033188;28;20493;-75
2023/11/15 07:33:00;;;;;;;2.00;0.70;;;11.50;74.60;;;;;;5033178;28;20533;-75
2023/11/15 07:35:28;;;;;;;2.93;1.37;;;11.60;74.10;;;;;;5033066;28;20454;-74
2023/11/15 07:37:56;;;;;;;2.90;0.77;;;11.60;72.30;;;;;;5033168;28;20438;-74
2023/11/15 07:40:23;;;;;;;1.83;0.80;;;11.60;72.50;;;;;;5032800;28;20476;-75
2023/11/15 07:42:50;;;;;;;2.20;1.00;;;11.50;72.40;;;;;;5033063;28;20442;-75
2023/11/15 07:45:18;;;;;;;3.50;0.80;;;11.50;72.20;;;;;;5032742;28;20921;-75
2023/11/15 07:47:45;;;;;;;2.73;0.90;;;11.40;72.50;;;;;;5032771;28;20442;-75
2023/11/15 07:50:15;;;;;;;2.00;0.80;;;11.40;72.90;;;;;;5032529;28;20564;-75
2023/11/15 07:52:45;;;;;;;2.20;1.00;;;11.40;71.70;;;;;;5033001;28;20583;-74
2023/11/15 07:55:12;;;;;;;4.87;0.77;;;11.40;71.30;;;;;;5032992;28;20458;-75
2023/11/15 07:57:39;;;;;;;4.53;0.63;;;11.40;71.50;;;;;;5032886;28;20458;-75
2023/11/15 08:00:11;;;;;;;2.40;0.90;;;11.50;71.30;;;;;;5037034;28;20449;-75
2023/11/15 08:02:38;;;;;;;4.43;1.10;;;11.60;70.70;;;;;;5036906;28;20433;-75
2023/11/15 08:05:07;;;;;;;1.73;0.70;;;11.80;70.10;;;;;;5036850;28;20434;-75
2023/11/15 08:07:36;;;;;;;2.20;0.60;;;12.10;71.00;;;;;;5036481;28;20441;-75
2023/11/15 08:10:06;;;;;;;2.23;0.73;;;12.90;69.90;;;;;;5036925;28;20819;-75
2023/11/15 08:12:35;;;;;;;2.77;0.90;;;13.40;67.30;;;;;;5036692;28;20518;-75
2023/11/15 08:15:03;;;;;;;2.27;1.03;;;13.60;64.10;;;;;;5036706;28;20429;-75
2023/11/15 08:17:30;;;;;;;2.73;0.93;;;13.90;63.30;;;;;;5036630;28;20491;-75
2023/11/15 08:19:57;;;;;;;3.10;0.70;;;14.40;61.50;;;;;;5036573;28;20491;-75
2023/11/15 08:22:24;;;;;;;3.03;0.80;;;14.80;59.30;;;;;;5036527;28;20866;-75
2023/11/15 08:24:52;;;;;;;2.73;0.80;;;15.00;58.70;;;;;;5036243;28;20526;-76
2023/11/15 08:27:20;;;;;;;3.13;0.80;;;15.40;58.30;;;;;;5036170;28;20434;-75
2023/11/15 08:29:48;;;;;;;2.67;1.00;;;15.60;57.00;;;;;;5036060;28;20527;-75
2023/11/15 08:32:15;;;;;;;2.10;0.80;;;15.50;56.20;;;;;;5036459;28;20445;-76
2023/11/15 08:34:42;;;;;;;2.53;0.80;;;15.60;55.60;;;;;;5036440;28;20444;-75
2023/11/15 08:37:11;;;;;;;4.40;1.17;;;15.90;55.30;;;;;;5036267;28;20888;-75
2023/11/15 08:39:38;;;;;;;2.57;0.90;;;15.80;54.10;;;;;;5035899;28;20440;-75
2023/11/15 08:42:06;;;;;;;2.47;0.80;;;15.60;54.50;;;;;;5035887;28;20434;-75
2023/11/15 08:44:37;;;;;;;3.40;0.90;;;15.20;54.20;;;;;;5036166;28;20444;-75
2023/11/15 08:47:04;;;;;;;2.20;1.00;;;14.90;54.30;;;;;;5036412;28;20747;-75
2023/11/15 08:49:31;;;;;;;2.63;0.70;;;14.50;54.90;;;;;;5035862;28;20544;-75
2023/11/15 08:51:58;;;;;;;2.70;0.70;;;14.20;56.20;;;;;;5035891;28;20484;-75
2023/11/15 08:54:25;;;;;;;4.77;1.07;;;13.90;57.10;;;;;;5035579;28;20441;-75
2023/11/15 08:56:53;;;;;;;2.73;0.53;;;13.80;57.70;;;;;;5035508;28;20937;-75
2023/11/15 08:59:24;;;;;;;4.47;0.90;;;13.70;58.20;;;;;;5035652;28;20534;-75
2023/11/15 09:01:54;;;;;;;2.50;1.00;;;13.60;58.30;;;;;;5036242;28;20431;-75
2023/11/15 09:04:21;;;;;;;2.63;0.80;;;13.40;59.20;;;;;;5035548;28;20977;-75
2023/11/15 09:06:48;;;;;;;1.80;0.80;;;13.30;59.30;;;;;;5035688;28;20431;-75
2023/11/15 09:09:15;;;;;;;5.10;1.33;;;13.20;59.30;;;;;;5035173;28;20521;-75
2023/11/15 09:11:43;;;;;;;4.63;0.80;;;13.10;59.60;;;;;;5035212;28;20442;-75
2023/11/15 09:14:13;;;;;;;5.23;0.87;;;13.00;59.40;;;;;;5035360;28;20513;-75
2023/11/15 09:16:42;;;;;;;2.27;1.17;;;12.90;59.60;;;;;;5035449;28;20423;-75
2023/11/15 09:19:15;;;;;;;2.43;0.77;;;12.80;60.10;;;;;;5035047;28;20462;-75
2023/11/15 09:21:48;;;;;;;3.33;1.60;;;12.70;60.70;;;;;;5035220;28;20485;-75
2023/11/15 09:24:18;;;;;;;2.67;0.93;;;12.60;61.50;;;;;;5035245;28;20853;-75
2023/11/15 09:26:48;;;;;;;2.00;0.80;;;12.50;62.00;;;;;;5035597;28;20430;-75
2023/11/15 09:29:16;;;;;;;4.43;1.00;;;12.40;62.80;;;;;;5035002;28;20443;-75
2023/11/15 09:31:43;;;;;;;8.13;1.27;;;12.40;63.60;;;;;;5035258;28;20853;-75
2023/11/15 09:34:12;;;;;;;3.20;1.33;;;12.30;62.40;;;;;;5035171;28;20435;-75
2023/11/15 09:36:39;;;;;;;3.90;0.93;;;12.30;62.80;;;;;;5034929;28;20521;-75
2023/11/15 09:39:09;;;;;;;2.37;0.93;;;12.30;62.80;;;;;;5035283;28;20496;-75
2023/11/15 09:41:36;;;;;;;2.47;0.67;;;12.20;62.70;;;;;;5035123;28;20445;-75
2023/11/15 09:44:09;;;;;;;3.20;0.80;;;12.20;62.80;;;;;;5035022;28;20462;-75
2023/11/15 09:46:38;;;;;;;2.83;0.70;;;12.10;63.20;;;;;;5035064;28;20425;-75
2023/11/15 09:49:06;;;;;;;3.03;1.03;;;12.10;63.70;;;;;;5034888;28;20466;-75
2023/11/15 09:51:35;;;;;;;2.20;0.70;;;12.10;64.10;;;;;;5034690;28;20473;-75
2023/11/15 09:54:06;;;;;;;2.90;1.00;;;12.00;64.10;;;;;;5034579;28;21012;-75
2023/11/15 09:56:34;;;;;;;4.43;0.93;;;12.00;64.50;;;;;;5034879;28;20422;-75
2023/11/15 09:59:01;;;;;;;2.30;0.93;;;12.00;64.40;;;;;;5034274;28;20532;-75
2023/11/15 10:01:28;;;;;;;6.90;1.30;;;12.10;64.40;;;;;;5034420;28;20438;-75
2023/11/15 10:03:55;;;;;;;3.40;0.90;;;12.30;65.30;;;;;;5034405;28;20466;-75
2023/11/15 10:06:24;;;;;;;2.50;1.00;;;12.70;64.70;;;;;;5034621;28;20841;-75
2023/11/15 10:08:54;;;;;;;2.37;0.90;;;13.20;63.80;;;;;;5034275;28;20917;-75
2023/11/15 10:11:22;;;;;;;2.10;0.60;;;13.40;61.90;;;;;;5034581;28;20454;-75
2023/11/15 10:13:51;;;;;;;3.10;0.83;;;13.50;61.60;;;;;;5034445;28;20481;-75
2023/11/15 10:16:30;;;;;;;4.90;1.40;;;13.40;60.30;;;;;;5034212;28;20991;-75
2023/11/15 10:18:58;;;;;;;2.43;0.80;;;13.40;60.30;;;;;;5034306;28;20440;-75
2023/11/15 10:21:25;;;;;;;4.23;1.00;;;13.30;59.80;;;;;;5033916;28;20449;-75
2023/11/15 10:24:11;;;;;;;4.23;1.00;;;13.30;60.70;;;;;;5034318;28;20470;-75
2023/11/15 10:26:38;;;;;;;5.13;0.97;;;13.30;59.60;;;;;;5034270;28;20430;-75
2023/11/15 10:29:08;;;;;;;4.30;1.00;;;13.20;59.30;;;;;;5034189;28;20520;-75
2023/11/15 10:31:47;;;;;;;2.83;0.87;;;13.20;59.00;;;;;;5034045;28;20472;-75
2023/11/15 10:34:16;;;;;;;2.30;0.67;;;13.10;58.80;;;;;;5034272;28;20419;-75
2023/11/15 10:36:43;;;;;;;2.57;1.00;;;13.00;58.60;;;;;;5034028;28;20446;-75
2023/11/15 10:39:12;;;;;;;3.60;0.80;;;13.00;59.10;;;;;;5033689;28;20528;-75
2023/11/15 10:41:43;;;;;;;2.40;0.90;;;13.00;59.50;;;;;;5033618;28;20500;-75
2023/11/15 10:44:12;;;;;;;3.50;0.90;;;13.00;59.50;;;;;;5033882;28;20426;-75
2023/11/15 10:46:43;;;;;;;2.30;1.20;;;13.00;59.60;;;;;;5034034;28;20916;-75
2023/11/15 10:49:13;;;;;;;5.20;1.00;;;13.00;59.60;;;;;;5033518;28;20517;-75
2023/11/15 10:51:41;;;;;;;3.07;2.00;;;13.10;60.50;;;;;;5033414;28;20481;-75
2023/11/15 10:54:11;;;;;;;2.00;0.70;;;13.20;60.30;;;;;;5033496;28;20924;-75
2023/11/15 10:56:41;;;;;;;4.57;1.17;;;13.30;59.80;;;;;;5033444;28;20446;-75
2023/11/15 10:59:10;;;;;;;3.07;1.20;;;13.30;59.10;;;;;;5033846;28;20461;-75
2023/11/15 11:01:37;;;;;;;2.40;0.90;;;13.40;59.80;;;;;;5033631;28;20445;-75
2023/11/15 11:04:10;;;;;;;2.43;0.70;;;13.50;59.60;;;;;;5033246;28;20609;-75
2023/11/15 11:06:47;;;;;;;3.07;1.00;;;13.70;60.70;;;;;;5033218;28;20485;-75
2023/11/15 11:09:23;;;;;;;2.20;0.70;;;14.10;60.00;;;;;;5033386;28;20434;-76
2023/11/15 11:11:57;;;;;;;4.57;1.20;;;14.30;58.90;;;;;;5033465;28;20461;-75
2023/11/15 11:14:27;;;;;;;5.27;1.30;;;14.30;58.30;;;;;;5033304;28;20425;-74
2023/11/15 11:16:56;;;;;;;2.50;1.10;;;14.30;57.50;;;;;;5033172;28;20997;-75
2023/11/15 11:19:25;;;;;;;5.83;1.17;;;14.30;56.70;;;;;;5033364;28;20856;-75
2023/11/15 11:22:11;;;;;;;4.00;1.03;;;14.50;56.90;;;;;;5033237;28;20442;-75
2023/11/15 11:24:45;;;;;;;3.00;0.83;;;14.50;56.00;;;;;;5033323;28;20465;-75
2023/11/15 11:27:32;;;;;;;4.13;0.80;;;14.50;56.70;;;;;;5033354;28;20457;-75
2023/11/15 11:30:20;;;;;;;3.57;0.90;;;14.40;56.60;;;;;;5033244;28;20414;-75
2023/11/15 11:32:49;;;;;;;1.90;0.70;;;14.30;56.10;;;;;;5032506;28;20506;-75
2023/11/15 11:35:34;;;;;;;2.43;0.90;;;14.20;56.70;;;;;;5032830;28;20438;-75
2023/11/15 11:38:02;;;;;;;2.40;1.20;;;14.30;57.10;;;;;;5033282;28;20522;-75
2023/11/15 11:40:32;;;;;;;5.50;1.40;;;14.30;56.90;;;;;;5033073;28;20453;-75
2023/11/15 11:43:15;;;;;;;3.57;1.60;;;14.60;57.40;;;;;;5032805;28;20429;-75
2023/11/15 11:45:44;;;;;;;2.97;0.90;;;15.30;56.20;;;;;;5033034;28;20510;-75
2023/11/15 11:48:18;;;;;;;4.77;0.90;;;15.50;55.70;;;;;;5033073;28;20502;-75
2023/11/15 11:51:01;;;;;;;2.50;0.80;;;15.80;56.00;;;;;;5032690;28;20454;-75
2023/11/15 11:53:31;;;;;;;2.97;0.90;;;17.10;56.30;;;;;;5032854;28;20423;-76
2023/11/15 11:55:58;;;;;;;3.07;0.83;;;19.30;49.90;;;;;;5032661;28;20435;-76
2023/11/15 11:58:38;;;;;;;2.33;0.80;;;21.40;47.20;;;;;;5032970;28;20823;-76
2023/11/15 12:01:07;;;;;;;2.20;0.90;;;22.90;40.50;;;;;;5032625;28;20507;-76
2023/11/15 12:03:37;;;;;;;4.40;1.10;;;24.00;38.70;;;;;;5032623;28;20426;-76
2023/11/15 12:06:10;;;;;;;2.47;0.70;;;24.60;34.40;;;;;;5032966;28;20508;-76
2023/11/15 12:11:33;;;;;;;3.90;2.40;;;24.90;33.20;;;;;;5010411;28;20471;-76
2023/11/15 12:14:04;;;;;;;2.23;0.60;;;24.60;30.30;;;;;;5010697;28;20467;-76
2023/11/15 12:16:31;;;;;;;3.13;0.70;;;23.60;32.40;;;;;;5010706;28;20430;-76
2023/11/15 12:19:07;;;;;;;4.20;0.93;;;23.90;34.20;;;;;;4991030;28;20479;-76
2023/11/15 12:21:38;;;;;;;2.37;0.60;;;24.50;33.80;;;;;;4990928;28;20440;-76
2023/11/15 12:24:06;;;;;;;4.80;0.60;;;23.70;31.10;;;;;;5002983;28;20426;-76
2023/11/15 12:26:46;;;;;;;1.90;0.70;;;23.10;34.50;;;;;;5010281;28;20427;-76
2023/11/15 12:29:20;;;;;;;2.20;0.63;;;23.10;33.80;;;;;;5004916;28;20450;-76
2023/11/15 12:31:59;;;;;;;1.97;0.67;;;22.80;33.40;;;;;;4977898;28;20504;-76
2023/11/15 12:34:27;;;;;;;2.63;0.93;;;22.70;35.60;;;;;;5011848;28;20952;-76
2023/11/15 12:36:56;;;;;;;4.43;0.97;;;22.40;34.70;;;;;;5032355;28;20537;-76
2023/11/15 12:39:23;;;;;;;4.00;0.90;;;21.80;35.30;;;;;;5032259;28;20446;-76
2023/11/15 12:41:57;;;;;;;2.93;0.90;;;21.70;35.70;;;;;;5032020;28;20530;-76
2023/11/15 12:44:28;;;;;;;3.20;1.13;;;22.00;35.50;;;;;;5032179;28;20431;-76
2023/11/15 12:46:58;;;;;;;2.97;0.80;;;22.00;34.40;;;;;;5035900;28;20941;-76
2023/11/15 12:49:26;;;;;;;4.40;0.83;;;21.40;34.60;;;;;;5035500;28;20438;-76
2023/11/15 12:51:54;;;;;;;3.00;1.10;;;20.80;35.20;;;;;;5035496;28;20577;-76
2023/11/15 12:54:23;;;;;;;4.57;0.90;;;20.20;36.50;;;;;;5035809;28;20442;-76
2023/11/15 12:57:12;;;;;;;4.30;0.90;;;19.70;37.10;;;;;;5035343;28;20438;-76
2023/11/15 12:59:42;;;;;;;2.10;0.70;;;19.50;37.80;;;;;;5035909;28;20501;-76